createdAt,value
2018-06-14T00:01:10.459Z,148653.84
2018-06-14T00:03:41.283Z,148655.09
2018-06-14T00:06:12.285Z,148650.11
2018-06-14T00:08:43.219Z,148615.22
2018-06-14T00:11:14.414Z,148635.17
2018-06-14T00:13:45.471Z,148642.64
2018-06-14T00:16:16.589Z,148642.64
2018-06-14T00:18:47.860Z,148642.64
2018-06-14T00:21:18.997Z,148636.42
2018-06-14T00:23:49.865Z,148643.89
2018-06-14T00:26:20.977Z,148642.64
2018-06-14T00:28:52.021Z,148625.17
2018-06-14T00:31:24.936Z,148618.94
2018-06-14T00:33:55.901Z,148620.19
2018-06-14T00:36:26.866Z,148618.94
2018-06-14T00:38:58.075Z,148615.22
2018-06-14T00:41:29.120Z,148610.23
2018-06-14T00:44:00.252Z,148594.05
2018-06-14T00:46:31.291Z,148599.03
2018-06-14T00:49:02.346Z,148610.23
2018-06-14T00:51:33.348Z,148595.30
2018-06-14T00:54:04.320Z,148595.30
2018-06-14T00:56:45.611Z,148607.75
2018-06-14T00:59:16.451Z,148621.44
2018-06-14T01:01:49.175Z,148606.50
2018-06-14T01:04:20.291Z,148613.97
2018-06-14T01:06:51.424Z,148625.17
2018-06-14T01:09:22.377Z,148637.66
2018-06-14T01:11:53.498Z,148623.92
2018-06-14T01:14:24.973Z,148618.94
2018-06-14T01:16:55.908Z,148625.17
2018-06-14T01:19:26.780Z,148627.66
2018-06-14T01:21:57.793Z,148638.91
2018-06-14T01:24:28.870Z,148646.38
2018-06-14T01:27:00.720Z,148638.91
2018-06-14T01:29:31.797Z,148615.22
2018-06-14T01:32:02.884Z,148584.09
2018-06-14T01:34:34.179Z,148579.06
2018-06-14T01:37:06.244Z,148561.66
2018-06-14T01:39:36.992Z,148561.66
2018-06-14T01:42:08.898Z,148536.77
2018-06-14T01:44:39.822Z,148515.56
2018-06-14T01:47:10.883Z,148483.11
2018-06-14T01:49:41.793Z,148450.77
2018-06-14T01:52:12.864Z,148442.06
2018-06-14T01:54:43.887Z,148448.28
2018-06-14T01:57:15.779Z,148407.19
2018-06-14T01:59:46.994Z,148400.97
2018-06-14T02:02:18.162Z,148427.09
2018-06-14T02:04:49.192Z,148432.06
2018-06-14T02:07:21.092Z,148447.03
2018-06-14T02:09:53.002Z,148423.34
2018-06-14T02:12:24.085Z,148444.55
2018-06-14T02:14:54.939Z,148415.89
2018-06-14T02:17:26.813Z,148390.97
2018-06-14T02:19:57.963Z,148405.94
2018-06-14T02:22:28.938Z,148418.38
2018-06-14T02:25:00.208Z,148427.09
2018-06-14T02:27:31.363Z,148433.31
2018-06-14T02:30:02.351Z,148443.31
2018-06-14T02:32:34.222Z,148434.55
2018-06-14T02:35:05.335Z,148413.41
2018-06-14T02:37:41.880Z,148407.19
2018-06-14T02:40:13.645Z,148417.14
2018-06-14T02:43:00.130Z,148412.16
2018-06-14T02:45:36.495Z,148402.22
2018-06-14T02:48:07.058Z,148407.19
2018-06-14T02:50:37.650Z,148438.28
2018-06-14T02:53:08.297Z,148452.02
2018-06-14T02:55:38.698Z,148463.22
2018-06-14T02:58:09.323Z,148490.63
2018-06-14T03:00:39.971Z,148559.16
2018-06-14T03:03:10.699Z,148613.97
2018-06-14T03:05:41.262Z,148703.69
2018-06-14T03:08:12.492Z,148879.50
2018-06-14T03:10:43.030Z,149139.00
2018-06-14T03:13:13.741Z,149376.20
2018-06-14T03:15:44.233Z,149552.34
2018-06-14T03:18:14.860Z,149778.56
2018-06-14T03:20:45.518Z,149854.84
2018-06-14T03:23:16.271Z,149984.88
2018-06-14T03:25:47.811Z,150217.66
2018-06-14T03:28:19.164Z,150281.47
2018-06-14T03:30:49.803Z,150379.16
2018-06-14T03:33:21.148Z,150644.70
2018-06-14T03:35:51.666Z,150793.84
2018-06-14T03:38:22.168Z,150953.09
2018-06-14T03:40:52.980Z,150974.44
2018-06-14T03:43:23.657Z,150864.09
2018-06-14T03:45:54.394Z,150925.50
2018-06-14T03:48:24.885Z,151394.80
2018-06-14T03:50:55.314Z,151661.00
2018-06-14T03:53:25.882Z,151491.44
2018-06-14T03:55:56.839Z,151704.97
2018-06-14T03:58:28.232Z,151728.84
2018-06-14T04:00:58.859Z,151694.92
2018-06-14T04:03:30.327Z,151453.78
2018-06-14T04:06:00.693Z,151032.09
2018-06-14T04:08:31.864Z,150886.63
2018-06-14T04:11:04.530Z,151077.25
2018-06-14T04:13:35.563Z,151232.86
2018-06-14T04:16:07.662Z,151128.72
2018-06-14T04:18:38.599Z,151573.09
2018-06-14T04:21:09.568Z,151379.70
2018-06-14T04:23:40.700Z,151305.66
2018-06-14T04:26:11.761Z,151357.09
2018-06-14T04:28:44.284Z,151581.88
2018-06-14T04:31:15.115Z,151851.97
2018-06-14T04:33:47.023Z,152206.56
2018-06-14T04:36:18.140Z,151859.55
2018-06-14T04:38:50.309Z,151970.16
2018-06-14T04:41:21.401Z,151815.58
2018-06-14T04:43:52.391Z,151718.81
2018-06-14T04:46:23.430Z,151176.37
2018-06-14T04:48:54.440Z,151563.02
2018-06-14T04:51:25.476Z,151586.91
2018-06-14T04:53:56.723Z,151732.61
2018-06-14T04:56:27.739Z,151632.09
2018-06-14T04:58:59.109Z,151286.80
2018-06-14T05:01:30.024Z,151269.25
2018-06-14T05:04:01.907Z,151286.80
2018-06-14T05:06:34.059Z,151040.87
2018-06-14T05:09:07.281Z,151355.84
2018-06-14T05:11:38.431Z,151417.38
2018-06-14T05:14:09.790Z,151810.50
2018-06-14T05:16:41.877Z,151985.22
2018-06-14T05:19:12.901Z,152030.52
2018-06-14T05:21:43.992Z,152141.11
2018-06-14T05:24:15.485Z,152079.53
2018-06-14T05:26:47.385Z,151652.22
2018-06-14T05:29:18.380Z,151924.91
2018-06-14T05:31:49.344Z,152459.44
2018-06-14T05:34:20.458Z,152720.03
2018-06-14T05:36:51.674Z,152358.77
2018-06-14T05:39:23.755Z,152149.94
2018-06-14T05:41:55.477Z,151770.34
2018-06-14T05:44:26.526Z,151611.98
2018-06-14T05:46:57.574Z,152299.66
2018-06-14T05:49:29.362Z,151953.78
2018-06-14T05:52:00.279Z,151697.44
2018-06-14T05:54:31.261Z,151917.38
2018-06-14T05:57:02.416Z,151924.91
2018-06-14T05:59:34.497Z,151509.05
2018-06-14T06:02:05.426Z,151437.47
2018-06-14T06:04:36.573Z,151504.03
2018-06-14T06:07:07.872Z,151601.95
2018-06-14T06:09:40.210Z,151598.19
2018-06-14T06:12:12.292Z,151461.30
2018-06-14T06:14:43.559Z,151786.66
2018-06-14T06:17:15.413Z,151643.44
2018-06-14T06:19:46.734Z,151767.84
2018-06-14T06:22:17.908Z,151586.91
2018-06-14T06:24:49.186Z,151603.20
2018-06-14T06:27:20.251Z,151520.33
2018-06-14T06:29:52.368Z,151531.66
2018-06-14T06:32:23.450Z,151960.11
2018-06-14T06:34:54.323Z,151975.17
2018-06-14T06:37:25.616Z,151833.14
2018-06-14T06:39:57.446Z,151306.91
2018-06-14T06:42:29.158Z,151383.52
2018-06-14T06:45:00.157Z,151632.09
2018-06-14T06:47:31.176Z,151859.55
2018-06-14T06:50:03.453Z,152178.87
2018-06-14T06:52:38.612Z,152552.58
2018-06-14T06:55:09.692Z,152732.61
2018-06-14T06:57:40.584Z,153031.16
2018-06-14T07:00:12.537Z,153012.28
2018-06-14T07:02:43.612Z,153350.08
2018-06-14T07:05:14.401Z,154041.47
2018-06-14T07:07:45.276Z,154060.44
2018-06-14T07:10:16.434Z,153400.50
2018-06-14T07:12:50.760Z,153705.73
2018-06-14T07:15:21.855Z,153859.72
2018-06-14T07:17:52.926Z,153925.34
2018-06-14T07:20:23.791Z,153690.63
2018-06-14T07:22:54.814Z,152946.72
2018-06-14T07:25:26.890Z,153009.77
2018-06-14T07:27:58.015Z,152557.61
2018-06-14T07:30:29.801Z,152314.73
2018-06-14T07:33:00.893Z,152762.84
2018-06-14T07:35:31.924Z,153070.22
2018-06-14T07:38:03.049Z,153444.66
2018-06-14T07:40:34.399Z,153225.25
2018-06-14T07:43:06.532Z,153447.19
2018-06-14T07:45:37.566Z,153492.56
2018-06-14T07:48:08.858Z,153391.67
2018-06-14T07:50:40.061Z,152877.48
2018-06-14T07:53:10.995Z,153032.41
2018-06-14T07:55:42.811Z,153034.94
2018-06-14T07:58:13.937Z,153039.97
2018-06-14T08:00:44.914Z,152654.56
2018-06-14T08:03:16.204Z,152606.69
2018-06-14T08:05:47.451Z,152356.25
2018-06-14T08:08:18.418Z,152377.61
2018-06-14T08:10:49.504Z,151929.94
2018-06-14T08:13:22.897Z,151750.17
2018-06-14T08:15:53.997Z,151509.05
2018-06-14T08:18:25.238Z,151122.44
2018-06-14T08:20:56.628Z,151094.83
2018-06-14T08:23:28.120Z,151065.97
2018-06-14T08:25:59.314Z,150921.75
2018-06-14T08:28:30.197Z,150944.33
2018-06-14T08:31:03.063Z,150686.09
2018-06-14T08:33:34.140Z,150707.38
2018-06-14T08:36:05.148Z,150627.17
2018-06-14T08:38:36.336Z,150642.19
2018-06-14T08:41:07.547Z,150647.25
2018-06-14T08:43:38.580Z,150597.09
2018-06-14T08:46:09.637Z,150568.28
2018-06-14T08:48:40.368Z,150598.34
2018-06-14T08:51:11.603Z,150557.02
2018-06-14T08:53:42.864Z,150608.36
2018-06-14T08:56:14.102Z,150504.42
2018-06-14T08:58:45.225Z,150474.30
2018-06-14T09:01:16.314Z,150374.14
2018-06-14T09:03:47.579Z,150366.64
2018-06-14T09:06:18.604Z,150316.53
2018-06-14T09:08:50.169Z,150340.38
2018-06-14T09:11:21.489Z,150233.91
2018-06-14T09:13:52.420Z,150186.37
2018-06-14T09:16:23.837Z,150258.97
2018-06-14T09:18:55.176Z,150232.66
2018-06-14T09:21:26.977Z,150176.36
2018-06-14T09:23:58.174Z,150227.66
2018-06-14T09:26:29.098Z,150268.97
2018-06-14T09:28:59.843Z,150198.91
2018-06-14T09:31:30.960Z,150208.91
2018-06-14T09:34:01.950Z,150217.66
2018-06-14T09:36:34.161Z,150206.41
2018-06-14T09:39:06.954Z,150183.87
2018-06-14T09:41:38.412Z,150228.91
2018-06-14T09:44:09.717Z,150181.36
2018-06-14T09:46:41.153Z,150245.22
2018-06-14T09:49:16.258Z,150330.28
2018-06-14T09:51:48.697Z,150277.72
2018-06-14T09:54:19.834Z,150286.47
2018-06-14T09:56:51.710Z,150337.88
2018-06-14T09:59:23.282Z,150211.41
2018-06-14T10:01:55.538Z,150217.66
2018-06-14T10:04:26.637Z,150266.47
2018-06-14T10:06:58.785Z,150320.28
2018-06-14T10:09:29.936Z,150369.14
2018-06-14T10:12:01.160Z,150389.20
2018-06-14T10:14:32.400Z,150362.89
2018-06-14T10:17:04.168Z,150299.03
2018-06-14T10:19:35.452Z,150306.53
2018-06-14T10:22:06.712Z,150240.16
2018-06-14T10:24:37.742Z,150270.22
2018-06-14T10:27:08.763Z,150282.72
2018-06-14T10:29:41.602Z,150287.72
2018-06-14T10:32:12.834Z,150305.28
2018-06-14T10:34:43.908Z,150351.64
2018-06-14T10:37:15.150Z,150205.16
2018-06-14T10:39:46.371Z,150281.47
2018-06-14T10:42:17.691Z,150276.47
2018-06-14T10:44:48.851Z,150314.03
2018-06-14T10:47:20.709Z,150302.78
2018-06-14T10:49:51.858Z,150287.72
2018-06-14T10:52:25.747Z,150331.53
2018-06-14T10:54:57.308Z,150330.28
2018-06-14T10:57:28.553Z,150330.28
2018-06-14T10:59:59.753Z,150341.63
2018-06-14T11:02:30.848Z,150325.28
2018-06-14T11:05:01.939Z,150294.02
2018-06-14T11:07:33.269Z,150295.27
2018-06-14T11:10:04.239Z,150256.47
2018-06-14T11:12:35.179Z,150228.91
2018-06-14T11:15:07.418Z,150221.41
2018-06-14T11:17:38.642Z,150223.91
2018-06-14T11:20:09.832Z,150196.41
2018-06-14T11:22:43.031Z,150181.36
2018-06-14T11:25:14.413Z,150123.78
2018-06-14T11:27:46.191Z,150118.78
2018-06-14T11:30:18.253Z,150145.02
2018-06-14T11:32:49.317Z,150116.28
2018-06-14T11:35:21.173Z,150153.81
2018-06-14T11:37:52.608Z,150173.81
2018-06-14T11:40:24.257Z,150216.41
2018-06-14T11:42:55.693Z,150207.66
2018-06-14T11:45:26.811Z,150173.81
2018-06-14T11:47:57.525Z,150198.91
2018-06-14T11:50:28.524Z,150218.91
2018-06-14T11:52:59.705Z,150221.41
2018-06-14T11:55:30.633Z,150178.88
2018-06-14T11:58:32.698Z,150208.91
2018-06-14T12:01:03.793Z,150208.91
2018-06-14T12:03:35.267Z,150130.03
2018-06-14T12:06:06.545Z,150142.53
2018-06-14T12:08:37.484Z,150176.36
2018-06-14T12:11:09.344Z,150158.81
2018-06-14T12:13:41.417Z,150193.91
2018-06-14T12:16:12.663Z,150220.16
2018-06-14T12:18:44.036Z,150242.72
2018-06-14T12:21:15.276Z,150188.86
2018-06-14T12:23:47.118Z,150161.31
2018-06-14T12:26:18.352Z,150111.28
2018-06-14T12:28:50.150Z,150008.67
2018-06-14T12:31:21.167Z,150011.22
2018-06-14T12:33:52.274Z,149994.88
2018-06-14T12:36:23.473Z,149968.64
2018-06-14T12:38:54.651Z,150023.72
2018-06-14T12:41:25.413Z,150056.25
2018-06-14T12:43:57.218Z,150118.78
2018-06-14T12:46:28.131Z,150096.23
2018-06-14T12:48:59.420Z,150022.47
2018-06-14T12:51:30.543Z,150062.50
2018-06-14T12:54:01.880Z,150108.78
2018-06-14T12:56:33.002Z,150101.28
2018-06-14T12:59:04.164Z,150055.00
2018-06-14T13:01:37.099Z,150023.72
2018-06-14T13:04:08.404Z,149986.13
2018-06-14T13:06:39.639Z,149951.11
2018-06-14T13:09:12.750Z,150011.22
2018-06-14T13:11:43.731Z,149988.64
2018-06-14T13:14:14.866Z,149998.62
2018-06-14T13:16:45.985Z,150026.22
2018-06-14T13:19:18.263Z,150063.75
2018-06-14T13:21:49.354Z,150106.28
2018-06-14T13:24:21.445Z,150006.17
2018-06-14T13:26:52.568Z,150021.22
2018-06-14T13:29:25.709Z,150033.70
2018-06-14T13:31:58.164Z,150013.72
2018-06-14T13:34:29.286Z,150048.70
2018-06-14T13:37:00.668Z,150094.98
2018-06-14T13:39:31.906Z,149996.13
2018-06-14T13:42:03.057Z,150037.45
2018-06-14T13:44:34.005Z,150009.92
2018-06-14T13:47:04.942Z,149946.11
2018-06-14T13:49:36.157Z,149933.62
2018-06-14T13:52:08.859Z,149946.11
2018-06-14T13:54:40.897Z,149923.62
2018-06-14T13:57:12.073Z,149923.62
2018-06-14T13:59:43.180Z,149924.87
2018-06-14T14:02:14.526Z,149963.66
2018-06-14T14:04:45.724Z,149984.88
2018-06-14T14:07:20.719Z,149993.63
2018-06-14T14:09:52.070Z,149987.39
2018-06-14T14:12:23.290Z,150001.12
2018-06-14T14:14:55.597Z,150034.95
2018-06-14T14:17:28.002Z,150037.45
2018-06-14T14:19:59.279Z,149993.63
2018-06-14T14:22:31.108Z,149943.61
2018-06-14T14:25:02.358Z,149927.38
2018-06-14T14:27:33.226Z,149907.34
2018-06-14T14:30:06.214Z,149908.59
2018-06-14T14:32:37.395Z,149867.37
2018-06-14T14:35:08.832Z,149839.80
2018-06-14T14:37:39.973Z,149822.31
2018-06-14T14:40:11.061Z,149812.28
2018-06-14T14:42:42.092Z,149853.59
2018-06-14T14:45:13.013Z,149803.53
2018-06-14T14:47:43.953Z,149773.58
2018-06-14T14:50:15.259Z,149786.06
2018-06-14T14:52:46.349Z,149768.58
2018-06-14T14:55:18.005Z,149778.56
2018-06-14T14:57:49.295Z,149774.81
2018-06-14T15:00:20.606Z,149752.30
2018-06-14T15:02:52.843Z,149748.56
2018-06-14T15:08:00.990Z,149738.56
2018-06-14T15:10:33.598Z,149699.81
2018-06-14T15:13:04.361Z,149708.55
2018-06-14T15:15:35.845Z,149697.31
2018-06-14T15:18:06.851Z,149688.58
2018-06-14T15:20:38.150Z,149743.56
2018-06-14T15:23:09.130Z,149741.06
2018-06-14T15:25:40.122Z,149666.02
2018-06-14T15:28:12.275Z,149658.53
2018-06-14T15:30:44.274Z,149649.78
2018-06-14T15:33:15.083Z,149627.31
2018-06-14T15:35:45.778Z,149636.06
2018-06-14T15:38:16.381Z,149647.30
2018-06-14T15:40:48.503Z,149651.03
2018-06-14T15:43:19.558Z,149601.06
2018-06-14T15:45:50.620Z,149648.53
2018-06-14T15:48:21.757Z,149596.06
2018-06-14T15:50:52.856Z,149588.59
2018-06-14T15:53:24.903Z,149584.84
2018-06-14T15:56:11.493Z,149611.05
2018-06-14T15:58:46.491Z,149619.78
2018-06-14T16:01:18.542Z,149624.83
2018-06-14T16:03:49.829Z,149608.55
2018-06-14T16:06:21.161Z,149581.09
2018-06-14T16:08:52.371Z,149492.41
2018-06-14T16:11:23.807Z,149443.66
2018-06-14T16:13:55.389Z,149456.12
2018-06-14T16:16:26.793Z,149467.36
2018-06-14T16:19:04.157Z,149424.89
2018-06-14T16:21:36.086Z,149382.44
2018-06-14T16:24:07.143Z,149421.16
2018-06-14T16:26:38.320Z,149406.19
2018-06-14T16:29:09.816Z,149402.44
2018-06-14T16:31:41.816Z,149391.22
2018-06-14T16:34:13.572Z,149364.97
2018-06-14T16:36:44.635Z,149367.47
2018-06-14T16:39:15.819Z,149342.53
2018-06-14T16:41:47.366Z,149303.77
2018-06-14T16:44:18.392Z,149311.30
2018-06-14T16:46:49.601Z,149305.02
2018-06-14T16:49:20.586Z,149301.28
2018-06-14T16:51:52.698Z,149307.50
2018-06-14T16:54:23.798Z,149285.02
2018-06-14T16:56:54.857Z,149250.09
2018-06-14T16:59:26.433Z,149262.56
2018-06-14T17:01:58.350Z,149261.33
2018-06-14T17:04:29.578Z,149248.84
2018-06-14T17:07:00.802Z,149226.36
2018-06-14T17:09:32.005Z,149213.89
2018-06-14T17:12:03.395Z,149221.38
2018-06-14T17:14:34.893Z,149222.63
2018-06-14T17:17:06.120Z,149208.91
2018-06-14T17:19:43.037Z,149208.91
2018-06-14T17:22:14.268Z,149221.38
2018-06-14T17:24:46.015Z,149195.16
2018-06-14T17:27:17.301Z,149217.63
2018-06-14T17:29:53.087Z,149213.89
2018-06-14T17:32:25.035Z,149157.75
2018-06-14T17:34:56.135Z,149127.78
2018-06-14T17:37:27.192Z,149141.50
2018-06-14T17:39:58.336Z,149120.31
2018-06-14T17:42:29.512Z,149106.56
2018-06-14T17:45:00.628Z,149111.53
2018-06-14T17:47:32.506Z,149124.05
2018-06-14T17:50:03.733Z,149114.03
2018-06-14T17:52:35.082Z,149102.77
2018-06-14T17:55:07.419Z,149064.13
2018-06-14T17:57:50.385Z,149069.12
2018-06-14T18:00:21.815Z,149091.55
2018-06-14T18:02:52.948Z,149092.80
2018-06-14T18:05:24.030Z,149074.09
2018-06-14T18:07:55.293Z,149049.12
2018-06-14T18:10:30.137Z,149039.16
2018-06-14T18:13:01.290Z,148994.25
2018-06-14T18:15:32.486Z,148996.75
2018-06-14T18:20:44.395Z,148993.00
2018-06-14T18:23:15.851Z,148965.59
2018-06-14T18:25:48.137Z,148948.11
2018-06-14T18:28:19.812Z,148940.64
2018-06-14T18:30:51.466Z,148911.89
2018-06-14T18:33:25.811Z,148914.42
2018-06-14T18:35:58.641Z,148910.64
2018-06-14T18:38:29.920Z,148919.41
2018-06-14T18:41:01.600Z,148909.41
2018-06-14T18:43:33.061Z,148915.67
2018-06-14T18:46:04.756Z,148889.47
2018-06-14T18:48:39.373Z,148906.91
2018-06-14T18:51:11.122Z,148926.94
2018-06-14T18:53:43.029Z,148924.44
2018-06-14T18:56:15.197Z,148933.16
2018-06-14T19:01:16.074Z,148955.59
2018-06-14T19:03:57.132Z,148949.36
2018-06-14T19:06:28.458Z,148931.91
2018-06-14T19:08:59.604Z,148938.14
2018-06-14T19:11:32.759Z,148958.08
2018-06-14T19:14:05.375Z,148964.36
2018-06-14T19:16:37.154Z,148989.27
2018-06-14T19:19:08.784Z,148980.55
2018-06-14T19:21:51.232Z,148989.27
2018-06-14T19:24:25.132Z,148988.03
2018-06-14T19:26:56.721Z,148989.27
2018-06-14T19:29:28.005Z,148985.53
2018-06-14T19:31:59.211Z,148948.11
2018-06-14T19:34:30.248Z,148959.31
2018-06-14T19:37:01.298Z,148964.36
2018-06-14T19:39:32.764Z,148958.08
2018-06-14T19:42:04.980Z,148966.84
2018-06-14T19:44:36.118Z,148974.31
2018-06-14T19:47:07.978Z,148966.84
2018-06-14T19:49:39.252Z,148960.56
2018-06-14T19:52:10.369Z,148946.86
2018-06-14T19:54:43.060Z,148936.89
2018-06-14T19:57:14.789Z,148956.83
2018-06-14T19:59:46.836Z,148943.13
2018-06-14T20:02:19.494Z,148936.89
2018-06-14T20:04:52.007Z,148929.42
2018-06-14T20:07:23.277Z,148909.41
2018-06-14T20:09:55.164Z,148903.17
2018-06-14T20:12:26.420Z,148889.47
2018-06-14T20:14:57.768Z,148877.02
2018-06-14T20:17:29.321Z,148884.48
2018-06-14T20:20:00.438Z,148886.97
2018-06-14T20:22:31.459Z,148849.56
2018-06-14T20:25:02.507Z,148839.59
2018-06-14T20:27:33.794Z,148808.42
2018-06-14T20:30:05.272Z,148790.98
2018-06-14T20:32:36.689Z,148797.22
2018-06-14T20:35:08.648Z,148818.38
2018-06-14T20:37:39.826Z,148818.38
2018-06-14T20:40:11.251Z,148820.92
2018-06-14T20:42:42.438Z,148802.19
2018-06-14T20:45:13.580Z,148795.97
2018-06-14T20:47:44.713Z,148797.22
2018-06-14T20:50:16.991Z,148804.69
2018-06-14T20:52:49.003Z,148802.19
2018-06-14T20:55:20.305Z,148797.22
2018-06-14T20:57:51.632Z,148793.47
2018-06-14T21:00:22.910Z,148778.53
2018-06-14T21:02:54.804Z,148767.28
2018-06-14T21:05:26.786Z,148747.36
2018-06-14T21:07:57.866Z,148724.91
2018-06-14T21:10:29.820Z,148701.19
2018-06-14T21:13:00.951Z,148685.00
2018-06-14T21:15:33.174Z,148662.56
2018-06-14T21:18:04.171Z,148661.31
2018-06-14T21:20:35.422Z,148677.50
2018-06-14T21:23:07.834Z,148696.22
2018-06-14T21:25:38.918Z,148608.98
2018-06-14T21:28:10.124Z,148697.47
2018-06-14T21:30:41.225Z,148677.50
2018-06-14T21:33:12.821Z,148662.56
2018-06-14T21:35:44.968Z,148562.89
2018-06-14T21:38:16.296Z,148610.23
2018-06-14T21:40:48.262Z,148621.44
2018-06-14T21:43:19.306Z,148627.66
2018-06-14T21:45:50.502Z,148638.91
2018-06-14T21:48:21.482Z,148625.17
2018-06-14T21:50:52.533Z,148622.67
2018-06-14T21:53:23.666Z,148607.75
2018-06-14T21:55:54.847Z,148572.84
2018-06-14T21:58:25.679Z,148572.84
2018-06-14T22:00:57.990Z,148586.58
2018-06-14T22:03:34.047Z,148579.06
2018-06-14T22:06:05.276Z,148566.63
2018-06-14T22:08:37.313Z,148567.88
2018-06-14T22:11:09.177Z,148584.09
2018-06-14T22:13:40.373Z,148622.67
2018-06-14T22:16:11.371Z,148655.09
2018-06-14T22:18:42.401Z,148672.52
2018-06-14T22:21:13.759Z,148666.28
2018-06-14T22:23:45.032Z,148689.98
2018-06-14T22:26:16.533Z,148714.89
2018-06-14T22:28:47.650Z,148722.41
2018-06-14T22:31:19.275Z,148716.13
2018-06-14T22:34:00.855Z,148697.47
2018-06-14T22:36:32.872Z,148677.50
2018-06-14T22:39:04.248Z,148662.56
2018-06-14T22:41:35.332Z,148667.53
2018-06-14T22:44:06.409Z,148677.50
2018-06-14T22:46:37.470Z,148682.53
2018-06-14T22:49:08.763Z,148667.53
2018-06-14T22:51:50.293Z,148651.34
2018-06-14T22:54:21.278Z,148648.86
2018-06-14T22:56:52.211Z,148626.41
2018-06-14T22:59:23.419Z,148622.67
2018-06-14T23:01:54.805Z,148620.19
2018-06-14T23:04:27.116Z,148620.19
2018-06-14T23:06:59.555Z,148611.47
2018-06-14T23:10:42.535Z,148600.28
2018-06-14T23:13:14.788Z,148569.11
2018-06-14T23:15:45.870Z,148567.88
2018-06-14T23:18:18.252Z,148547.97
2018-06-14T23:20:50.003Z,148528.00
2018-06-14T23:23:21.184Z,148506.84
2018-06-14T23:25:52.482Z,148503.06
2018-06-14T23:28:23.451Z,148538.00
2018-06-14T23:30:54.659Z,148557.92
2018-06-14T23:33:25.872Z,148534.22
2018-06-14T23:35:57.045Z,148539.25
2018-06-14T23:38:28.958Z,148532.98
2018-06-14T23:41:00.105Z,148525.52
2018-06-14T23:43:31.373Z,148525.52
2018-06-14T23:46:02.629Z,148542.98
2018-06-14T23:48:34.551Z,148536.77
2018-06-14T23:51:05.581Z,148551.69
2018-06-14T23:53:36.519Z,148557.92
2018-06-14T23:56:07.431Z,148560.41
2018-06-14T23:58:38.400Z,148540.50
